Time;durP1;ratioP1;P1;durP2;ratioP2;P2;SDS_P1;SDS_P2;PMS_P1;PMS_P2;Temp;Humidity;BMP_temperature;BMP_pressure;BME280_temperature;BME280_humidity;BME280_pressure;Samples;Min_cycle;Max_cycle;Signal;HPM_P1;HPM_P2
2021/06/09 00:01:47;;;;;;;2.00;1.60;;;24.00;54.80;;;;;;5010989;28;20025;-61
2021/06/09 00:04:13;;;;;;;1.33;1.23;;;24.00;54.80;;;;;;5012319;28;20485;-60
2021/06/09 00:06:39;;;;;;;1.23;1.20;;;24.00;54.80;;;;;;5012423;28;20461;-60
2021/06/09 00:09:06;;;;;;;1.85;1.48;;;24.00;54.90;;;;;;5012488;28;20057;-61
2021/06/09 00:11:32;;;;;;;1.77;1.52;;;23.90;54.80;;;;;;5012543;28;20137;-60
2021/06/09 00:13:58;;;;;;;1.25;1.15;;;23.90;54.80;;;;;;5012496;28;20030;-61
2021/06/09 00:16:25;;;;;;;1.40;1.30;;;23.90;54.80;;;;;;5012214;28;20037;-61
2021/06/09 00:18:50;;;;;;;1.73;1.58;;;24.00;54.90;;;;;;5012160;28;20026;-60
2021/06/09 00:21:17;;;;;;;1.90;1.73;;;23.90;54.90;;;;;;5013390;28;20068;-61
2021/06/09 00:23:44;;;;;;;2.35;1.63;;;23.90;54.90;;;;;;5015950;28;20037;-61
2021/06/09 00:26:10;;;;;;;1.35;1.23;;;24.00;54.90;;;;;;5015754;28;20350;-61
2021/06/09 00:28:37;;;;;;;1.58;1.35;;;23.90;54.90;;;;;;5015694;28;20028;-61
2021/06/09 00:31:05;;;;;;;1.30;1.20;;;23.90;54.90;;;;;;5015808;28;20112;-60
2021/06/09 00:33:31;;;;;;;2.10;1.38;;;23.90;54.90;;;;;;5015498;28;20381;-60
2021/06/09 00:35:58;;;;;;;1.30;1.20;;;23.90;54.90;;;;;;5015592;28;20030;-60
2021/06/09 00:38:28;;;;;;;1.27;1.17;;;23.90;55.00;;;;;;5015781;28;20071;-60
2021/06/09 00:40:55;;;;;;;1.77;1.60;;;23.90;55.00;;;;;;5015414;28;20018;-60
2021/06/09 00:43:22;;;;;;;2.22;1.30;;;23.90;55.00;;;;;;5015587;28;20489;-61
2021/06/09 00:45:56;;;;;;;2.97;1.33;;;23.90;55.00;;;;;;5015348;28;20105;-60
2021/06/09 00:48:28;;;;;;;1.85;1.15;;;23.80;54.90;;;;;;5015540;28;20292;-61
2021/06/09 00:50:55;;;;;;;1.95;1.20;;;23.90;55.00;;;;;;5013916;28;20070;-60
2021/06/09 00:53:27;;;;;;;1.58;1.48;;;23.80;55.00;;;;;;5015529;28;20038;-61
2021/06/09 00:55:58;;;;;;;2.00;1.75;;;23.80;54.90;;;;;;5015042;28;20469;-61
2021/06/09 00:58:24;;;;;;;1.63;1.50;;;23.80;55.00;;;;;;5015139;28;20030;-61
2021/06/09 01:00:51;;;;;;;1.42;1.33;;;23.90;55.10;;;;;;5014982;28;20409;-61
2021/06/09 01:03:18;;;;;;;1.58;1.40;;;23.80;55.10;;;;;;5015073;28;20022;-61
2021/06/09 01:05:43;;;;;;;1.50;1.40;;;23.80;55.10;;;;;;5014956;28;20030;-60
2021/06/09 01:08:09;;;;;;;2.13;1.50;;;23.80;55.10;;;;;;5014872;28;20097;-61
2021/06/09 01:10:35;;;;;;;1.70;1.60;;;23.80;55.20;;;;;;5030015;28;20033;-61
2021/06/09 01:13:01;;;;;;;2.35;1.73;;;23.80;55.20;;;;;;5014746;28;20565;-61
2021/06/09 01:15:28;;;;;;;1.80;1.70;;;23.90;55.30;;;;;;5015029;28;20025;-61
2021/06/09 01:17:54;;;;;;;3.28;1.80;;;23.90;55.30;;;;;;5014991;28;20076;-61
2021/06/09 01:20:21;;;;;;;1.70;1.60;;;23.80;55.20;;;;;;5014591;28;20030;-61
2021/06/09 01:22:47;;;;;;;1.65;1.50;;;23.80;55.30;;;;;;5014620;28;20022;-60
2021/06/09 01:25:13;;;;;;;1.60;1.50;;;23.80;55.30;;;;;;5014570;28;20022;-61
2021/06/09 01:27:40;;;;;;;1.85;1.52;;;23.80;55.40;;;;;;5014817;28;20017;-61
2021/06/09 01:30:11;;;;;;;1.70;1.60;;;23.70;55.30;;;;;;5014493;28;20109;-61
2021/06/09 01:32:37;;;;;;;3.28;1.50;;;23.80;55.40;;;;;;5013938;28;20470;-60
2021/06/09 01:35:04;;;;;;;1.67;1.40;;;23.80;55.40;;;;;;5014340;28;20065;-61
2021/06/09 01:37:31;;;;;;;1.63;1.40;;;23.70;55.40;;;;;;5014212;28;20037;-61
2021/06/09 01:39:59;;;;;;;1.40;1.30;;;23.80;55.40;;;;;;5014269;28;20469;-61
2021/06/09 01:42:30;;;;;;;2.08;1.80;;;23.70;55.40;;;;;;5013226;28;20022;-60
2021/06/09 01:44:56;;;;;;;1.90;1.67;;;23.80;55.50;;;;;;5014272;28;20065;-60
2021/06/09 01:47:23;;;;;;;1.80;1.70;;;23.70;55.50;;;;;;5014131;28;20543;-61
2021/06/09 01:49:48;;;;;;;1.48;1.25;;;23.80;55.60;;;;;;5014239;28;20033;-61
2021/06/09 01:52:14;;;;;;;1.60;1.50;;;23.70;55.50;;;;;;5014288;28;20018;-61
2021/06/09 01:54:40;;;;;;;1.60;1.45;;;23.70;55.50;;;;;;5014343;28;20013;-61
2021/06/09 01:57:07;;;;;;;2.28;1.60;;;23.70;55.60;;;;;;5013861;28;20026;-60
2021/06/09 01:59:34;;;;;;;1.60;1.50;;;23.70;56.20;;;;;;5014122;28;20017;-61
2021/06/09 02:02:00;;;;;;;1.98;1.60;;;23.70;56.20;;;;;;5013892;28;20046;-60
2021/06/09 02:04:26;;;;;;;2.45;1.75;;;23.70;55.60;;;;;;5012494;28;20052;-60
2021/06/09 02:06:53;;;;;;;1.60;1.50;;;23.80;55.70;;;;;;5012929;28;20136;-60
2021/06/09 02:09:20;;;;;;;1.60;1.50;;;23.80;55.80;;;;;;5013902;28;20026;-60
2021/06/09 02:11:47;;;;;;;2.85;1.70;;;23.70;55.70;;;;;;5013712;28;20084;-60
2021/06/09 02:14:15;;;;;;;1.65;1.55;;;23.70;55.70;;;;;;5012389;28;20021;-60
2021/06/09 02:16:43;;;;;;;1.67;1.58;;;23.80;55.80;;;;;;5013867;28;20491;-60
2021/06/09 02:19:10;;;;;;;2.10;1.90;;;23.60;55.80;;;;;;5013504;28;20026;-61
2021/06/09 02:21:38;;;;;;;3.22;2.30;;;23.60;55.80;;;;;;5013776;28;20537;-61
2021/06/09 02:24:06;;;;;;;1.45;1.35;;;23.60;55.80;;;;;;5013786;28;20084;-61
2021/06/09 02:26:32;;;;;;;1.70;1.60;;;23.60;55.80;;;;;;5013494;28;20427;-61
2021/06/09 02:29:00;;;;;;;2.33;2.05;;;23.60;55.80;;;;;;5013468;28;20037;-60
2021/06/09 02:31:26;;;;;;;4.07;1.60;;;23.70;55.90;;;;;;5013364;28;20506;-61
2021/06/09 02:33:53;;;;;;;1.95;1.85;;;23.60;55.90;;;;;;5012177;28;20057;-60
2021/06/09 02:36:19;;;;;;;2.50;2.03;;;23.60;55.90;;;;;;5013607;28;20038;-61
2021/06/09 02:38:45;;;;;;;1.80;1.70;;;23.70;56.00;;;;;;5013594;28;20483;-61
2021/06/09 02:41:11;;;;;;;2.85;1.90;;;23.70;56.00;;;;;;5013356;28;20044;-60
2021/06/09 02:43:37;;;;;;;2.20;2.00;;;23.60;56.00;;;;;;5013117;28;20026;-61
2021/06/09 02:46:33;;;;;;;2.45;1.92;;;23.60;56.10;;;;;;5013221;28;20024;-61
2021/06/09 02:49:26;;;;;;;2.15;1.95;;;23.60;56.00;;;;;;5008581;28;20129;-61
2021/06/09 02:52:09;;;;;;;2.30;2.10;;;23.60;56.20;;;;;;5011540;28;20496;-61
2021/06/09 02:54:55;;;;;;;2.28;1.92;;;23.60;56.10;;;;;;5013446;28;20132;-61
2021/06/09 02:57:39;;;;;;;2.78;2.13;;;23.70;56.20;;;;;;5013048;28;20030;-61
2021/06/09 03:00:23;;;;;;;3.05;2.13;;;23.60;56.20;;;;;;5013057;28;20065;-61
2021/06/09 03:03:10;;;;;;;4.35;2.10;;;23.60;56.20;;;;;;5013132;28;20030;-61
2021/06/09 03:05:42;;;;;;;2.70;2.20;;;23.60;56.10;;;;;;5013248;28;20045;-61
2021/06/09 03:08:27;;;;;;;3.22;2.00;;;23.50;56.20;;;;;;5012971;28;20496;-61
2021/06/09 03:11:01;;;;;;;3.17;1.88;;;23.60;56.20;;;;;;5013107;28;20038;-60
2021/06/09 03:16:53;;;;;;;2.67;2.47;;;23.60;56.30;;;;;;4979570;28;20026;-61
2021/06/09 03:19:35;;;;;;;2.35;2.15;;;23.50;56.20;;;;;;5012786;28;20033;-61
2021/06/09 03:22:29;;;;;;;2.33;2.10;;;23.50;56.30;;;;;;5027962;28;20432;-61
2021/06/09 03:24:57;;;;;;;2.20;1.90;;;23.50;56.20;;;;;;5013021;28;20033;-61
2021/06/09 03:27:30;;;;;;;3.28;2.25;;;23.50;56.30;;;;;;5012613;28;20030;-60
2021/06/09 03:30:02;;;;;;;2.38;2.17;;;23.50;56.30;;;;;;5012861;28;20026;-61
2021/06/09 03:32:38;;;;;;;2.33;2.05;;;23.60;56.40;;;;;;5013122;28;20026;-61
2021/06/09 03:35:43;;;;;;;3.47;2.20;;;23.50;56.30;;;;;;5012834;28;20380;-61
2021/06/09 03:38:14;;;;;;;2.53;2.13;;;23.50;56.90;;;;;;4997224;28;20108;-61
2021/06/09 03:40:42;;;;;;;2.70;2.50;;;23.60;56.40;;;;;;5012984;28;20025;-61
2021/06/09 03:43:12;;;;;;;2.15;1.92;;;23.50;56.40;;;;;;5012604;28;20180;-61
2021/06/09 03:45:49;;;;;;;2.22;2.00;;;23.50;56.40;;;;;;5012818;28;20046;-60
2021/06/09 03:48:17;;;;;;;2.22;2.03;;;23.50;56.40;;;;;;5012513;28;20029;-61
2021/06/09 03:50:46;;;;;;;1.83;1.70;;;23.50;57.00;;;;;;5012719;28;20046;-60
2021/06/09 03:53:12;;;;;;;2.65;1.67;;;23.40;56.30;;;;;;5012725;28;20025;-61
2021/06/09 03:55:39;;;;;;;2.00;1.80;;;23.40;56.30;;;;;;5013082;28;20041;-61
2021/06/09 03:58:08;;;;;;;2.17;1.80;;;23.30;81.20;;;;;;5016205;28;20049;-61
2021/06/09 04:00:35;;;;;;;1.80;1.70;;;23.80;56.60;;;;;;5016139;28;20065;-60
2021/06/09 04:03:03;;;;;;;2.42;1.77;;;24.10;56.70;;;;;;4998372;28;20368;-61
2021/06/09 04:05:30;;;;;;;2.88;1.92;;;23.60;56.50;;;;;;5015852;28;20061;-60
2021/06/09 04:07:58;;;;;;;1.95;1.75;;;23.50;56.40;;;;;;5015031;28;20026;-61
2021/06/09 04:10:26;;;;;;;2.72;1.88;;;23.50;56.40;;;;;;5016056;28;20264;-60
2021/06/09 04:12:52;;;;;;;1.73;1.58;;;;;;;;;;5015864;28;20018;-60
2021/06/09 04:15:19;;;;;;;2.92;1.92;;;23.50;55.80;;;;;;5015816;28;20037;-60
2021/06/09 04:17:48;;;;;;;1.85;1.75;;;23.40;56.40;;;;;;5015749;28;20577;-60
2021/06/09 04:20:21;;;;;;;2.15;1.50;;;23.40;56.30;;;;;;5015621;28;20022;-60
2021/06/09 04:22:46;;;;;;;1.98;1.60;;;24.00;56.70;;;;;;5015976;28;20033;-61
2021/06/09 04:25:12;;;;;;;1.90;1.60;;;23.40;56.40;;;;;;5015685;28;20025;-60
2021/06/09 04:27:43;;;;;;;1.92;1.83;;;23.40;56.30;;;;;;5015811;28;20389;-60
2021/06/09 04:30:10;;;;;;;2.05;1.85;;;23.50;56.40;;;;;;5015486;28;20110;-60
2021/06/09 04:32:56;;;;;;;1.58;1.48;;;23.40;56.40;;;;;;5015731;28;20045;-61
2021/06/09 04:35:28;;;;;;;2.38;1.60;;;23.40;56.30;;;;;;5014264;28;20032;-61
2021/06/09 04:37:54;;;;;;;2.03;1.83;;;23.90;56.60;;;;;;5015430;28;20034;-61
2021/06/09 04:40:24;;;;;;;1.60;1.50;;;23.40;56.40;;;;;;5015583;28;20484;-61
2021/06/09 04:42:52;;;;;;;1.63;1.52;;;23.40;56.40;;;;;;5015257;28;20049;-60
2021/06/09 04:45:22;;;;;;;2.10;1.90;;;23.40;56.40;;;;;;5015536;28;20428;-61
2021/06/09 04:47:47;;;;;;;2.85;2.20;;;23.50;56.40;;;;;;5015274;28;20385;-60
2021/06/09 04:50:18;;;;;;;2.65;1.90;;;23.40;56.40;;;;;;5015323;28;20077;-60
2021/06/09 04:52:43;;;;;;;;;;;23.40;56.50;;;;;;5015526;28;20481;-61
2021/06/09 04:55:09;;;;;;;1.98;1.50;;;23.60;56.60;;;;;;5015552;28;20004;-61
2021/06/09 04:57:36;;;;;;;2.13;1.92;;;23.40;56.50;;;;;;5015331;28;20033;-60
2021/06/09 05:00:05;;;;;;;2.00;1.80;;;23.60;56.70;;;;;;5015235;28;20037;-61
2021/06/09 05:02:32;;;;;;;2.65;1.90;;;23.40;56.60;;;;;;5014881;28;20026;-61
2021/06/09 05:04:57;;;;;;;2.47;1.88;;;23.40;56.70;;;;;;5014655;28;20050;-61
2021/06/09 05:07:23;;;;;;;1.88;1.77;;;23.40;56.70;;;;;;5013880;28;20026;-61
2021/06/09 05:09:49;;;;;;;2.42;2.08;;;24.00;57.10;;;;;;5014768;28;20037;-61
2021/06/09 05:12:20;;;;;;;2.67;1.90;;;23.40;56.80;;;;;;5014779;28;20057;-60
2021/06/09 05:14:50;;;;;;;3.30;1.92;;;23.50;56.80;;;;;;5014723;28;20018;-60
2021/06/09 05:17:25;;;;;;;2.03;1.80;;;23.30;56.70;;;;;;5014615;28;20026;-62
2021/06/09 05:19:52;;;;;;;4.32;2.08;;;23.40;56.70;;;;;;5013792;28;20034;-62
2021/06/09 05:22:31;;;;;;;2.92;2.08;;;23.80;57.00;;;;;;5014868;28;20104;-61
2021/06/09 05:25:02;;;;;;;2.95;2.38;;;23.40;56.80;;;;;;5013568;28;20109;-61
2021/06/09 05:27:29;;;;;;;3.45;2.25;;;23.40;56.30;;;;;;5014424;28;20640;-61
2021/06/09 05:29:56;;;;;;;3.13;2.30;;;23.40;56.80;;;;;;5014652;28;20037;-62
2021/06/09 05:32:23;;;;;;;2.53;2.10;;;24.00;57.20;;;;;;5014318;28;20362;-61
2021/06/09 05:34:49;;;;;;;3.10;1.98;;;23.10;56.90;;;;;;5014238;28;20025;-61
2021/06/09 05:37:16;;;;;;;2.40;1.90;;;23.20;57.20;;;;;;5014319;28;20014;-61
2021/06/09 05:39:42;;;;;;;3.13;2.10;;;23.40;57.50;;;;;;5014421;28;20052;-61
2021/06/09 05:42:13;;;;;;;2.53;2.20;;;23.30;57.40;;;;;;5014187;28;20036;-61
2021/06/09 05:44:43;;;;;;;2.42;1.77;;;23.30;57.70;;;;;;5014210;28;20065;-61
2021/06/09 05:47:09;;;;;;;2.28;1.70;;;23.70;57.40;;;;;;5014261;28;20101;-61
2021/06/09 05:49:34;;;;;;;2.47;1.90;;;23.40;57.00;;;;;;5029180;28;20053;-61
2021/06/09 05:52:00;;;;;;;4.20;2.38;;;23.70;57.30;;;;;;5012810;28;20026;-60
2021/06/09 05:54:36;;;;;;;2.45;2.20;;;23.30;57.00;;;;;;5013841;28;20025;-61
2021/06/09 05:57:06;;;;;;;4.45;2.40;;;23.30;57.00;;;;;;5029090;28;20409;-62
2021/06/09 05:59:33;;;;;;;2.47;1.95;;;23.40;57.60;;;;;;5014085;28;20057;-61
2021/06/09 06:01:59;;;;;;;5.10;2.45;;;23.40;57.10;;;;;;5014052;28;20022;-61
2021/06/09 06:04:26;;;;;;;2.58;2.17;;;23.50;57.20;;;;;;5013669;28;20045;-62
2021/06/09 06:06:52;;;;;;;3.75;2.55;;;23.30;57.10;;;;;;5013684;28;20033;-62
2021/06/09 06:09:18;;;;;;;5.28;2.63;;;23.90;57.50;;;;;;5013617;28;20432;-61
2021/06/09 06:11:45;;;;;;;2.67;2.40;;;23.30;57.20;;;;;;5013582;28;20026;-62
2021/06/09 06:14:11;;;;;;;1.80;1.70;;;23.30;57.30;;;;;;5013823;28;20022;-62
2021/06/09 06:16:39;;;;;;;4.60;2.50;;;23.40;57.40;;;;;;5012301;28;20052;-62
2021/06/09 06:19:05;;;;;;;3.85;2.58;;;23.20;57.40;;;;;;5013361;28;20429;-62
2021/06/09 06:21:31;;;;;;;2.22;2.00;;;23.10;57.30;;;;;;5013338;28;20465;-61
2021/06/09 06:23:59;;;;;;;2.13;1.80;;;23.30;57.40;;;;;;5013374;28;20026;-62
2021/06/09 06:26:25;;;;;;;2.28;2.00;;;23.90;57.90;;;;;;5013589;28;20061;-61
2021/06/09 06:28:52;;;;;;;4.65;1.77;;;23.30;57.40;;;;;;5013555;28;20480;-61
2021/06/09 06:31:24;;;;;;;2.80;1.63;;;23.30;57.40;;;;;;5013234;28;20523;-61
2021/06/09 06:33:55;;;;;;;1.95;1.75;;;23.30;57.40;;;;;;5013503;28;20054;-61
2021/06/09 06:36:23;;;;;;;1.60;1.50;;;23.30;57.40;;;;;;5013251;28;20470;-62
2021/06/09 06:38:49;;;;;;;2.92;1.40;;;23.50;57.40;;;;;;5013460;28;20397;-62
2021/06/09 06:41:16;;;;;;;3.17;2.30;;;23.20;57.30;;;;;;5013207;28;20029;-62
2021/06/09 06:43:42;;;;;;;3.72;2.30;;;23.40;57.40;;;;;;5013172;28;20451;-62
2021/06/09 06:46:19;;;;;;;2.47;2.08;;;23.40;57.40;;;;;;5013369;28;20018;-63
2021/06/09 06:48:48;;;;;;;2.78;1.77;;;23.70;57.50;;;;;;5013154;28;20028;-62
2021/06/09 06:51:16;;;;;;;3.65;1.85;;;23.30;57.30;;;;;;5013069;28;20037;-62
2021/06/09 06:53:44;;;;;;;3.38;2.20;;;23.30;57.30;;;;;;5013356;28;20053;-63
2021/06/09 06:56:10;;;;;;;1.73;1.63;;;23.50;57.40;;;;;;5013312;28;20447;-62
2021/06/09 06:58:36;;;;;;;9.20;2.05;;;23.20;57.30;;;;;;5013031;28;20072;-62
2021/06/09 07:01:03;;;;;;;2.38;2.10;;;23.90;57.50;;;;;;5013349;28;20240;-63
2021/06/09 07:03:30;;;;;;;4.22;1.90;;;23.40;57.20;;;;;;5012664;28;20046;-62
2021/06/09 07:05:56;;;;;;;3.38;2.13;;;23.30;57.30;;;;;;5013231;28;20042;-62
2021/06/09 07:08:23;;;;;;;2.53;2.10;;;23.50;57.30;;;;;;5012861;28;20380;-62
2021/06/09 07:10:50;;;;;;;3.90;1.70;;;23.50;57.20;;;;;;5012905;28;20385;-63
2021/06/09 07:13:16;;;;;;;3.05;1.83;;;23.50;57.20;;;;;;5012807;28;20444;-62
2021/06/09 07:15:45;;;;;;;2.40;1.92;;;23.50;57.10;;;;;;5012804;28;20025;-63
2021/06/09 07:18:11;;;;;;;4.13;2.03;;;23.40;57.10;;;;;;5012733;28;20030;-63
2021/06/09 07:20:37;;;;;;;8.50;5.20;;;23.90;57.80;;;;;;5012694;28;20054;-63
2021/06/09 07:23:02;;;;;;;5.65;3.67;;;23.40;57.30;;;;;;5012927;28;20202;-63
2021/06/09 07:25:31;;;;;;;4.82;3.85;;;23.40;57.60;;;;;;5012952;28;20061;-63
2021/06/09 07:28:03;;;;;;;9.25;5.00;;;23.30;57.60;;;;;;5012959;28;20025;-63
2021/06/09 07:30:31;;;;;;;9.65;5.05;;;23.50;57.40;;;;;;5012740;28;20026;-63
2021/06/09 07:32:57;;;;;;;9.55;6.93;;;23.90;57.60;;;;;;5016902;28;20018;-64
2021/06/09 07:35:23;;;;;;;19.17;10.57;;;23.50;57.20;;;;;;5016583;28;20153;-63
2021/06/09 07:37:52;;;;;;;13.45;8.63;;;23.50;57.10;;;;;;5016770;28;20014;-63
2021/06/09 07:40:25;;;;;;;18.98;12.73;;;23.90;57.90;;;;;;5015324;28;20469;-63
2021/06/09 07:42:54;;;;;;;19.90;13.48;;;23.50;57.90;;;;;;5016507;28;20477;-63
2021/06/09 07:45:22;;;;;;;21.65;15.75;;;23.50;57.80;;;;;;5016661;28;20060;-63
2021/06/09 07:47:48;;;;;;;23.70;15.63;;;24.00;58.20;;;;;;5015506;28;20057;-63
2021/06/09 07:50:22;;;;;;;23.48;14.68;;;23.50;58.00;;;;;;5016262;28;20109;-63
2021/06/09 07:52:48;;;;;;;21.70;13.63;;;23.50;57.90;;;;;;5016397;28;20353;-63
2021/06/09 07:55:14;;;;;;;24.17;13.90;;;23.30;57.90;;;;;;5016169;28;20076;-63
2021/06/09 07:57:42;;;;;;;21.00;13.30;;;23.50;57.90;;;;;;5016160;28;20030;-62
2021/06/09 08:00:12;;;;;;;19.08;13.23;;;23.50;57.70;;;;;;5016428;28;20109;-63
2021/06/09 08:02:40;;;;;;;21.90;14.95;;;23.50;57.60;;;;;;5016115;28;20017;-62
2021/06/09 08:05:06;;;;;;;22.95;14.52;;;24.10;58.30;;;;;;5015908;28;20231;-62
2021/06/09 08:07:35;;;;;;;23.33;13.85;;;23.50;58.00;;;;;;5016256;28;20049;-62
2021/06/09 08:10:02;;;;;;;20.40;12.52;;;23.50;57.80;;;;;;5016197;28;20345;-62
2021/06/09 08:12:28;;;;;;;15.68;9.82;;;23.80;57.60;;;;;;5016174;28;20022;-62
2021/06/09 08:14:54;;;;;;;13.50;8.77;;;23.50;57.40;;;;;;5016117;28;20041;-62
2021/06/09 08:17:23;;;;;;;13.27;8.30;;;23.60;57.30;;;;;;5015774;28;20065;-63
2021/06/09 08:19:48;;;;;;;12.88;6.97;;;23.60;57.10;;;;;;5015767;28;20018;-62
2021/06/09 08:22:14;;;;;;;8.98;6.95;;;24.00;57.20;;;;;;5015834;28;20048;-62
2021/06/09 08:24:39;;;;;;;11.27;5.57;;;23.60;56.90;;;;;;5015687;28;20041;-62
2021/06/09 08:27:05;;;;;;;7.82;5.30;;;23.90;56.90;;;;;;5015451;28;20033;-62
2021/06/09 08:29:34;;;;;;;9.40;5.28;;;23.60;56.70;;;;;;5014184;28;20020;-63
2021/06/09 08:32:00;;;;;;;10.43;4.50;;;23.70;56.60;;;;;;5015723;28;20034;-62
2021/06/09 08:34:25;;;;;;;10.52;4.55;;;23.70;56.60;;;;;;5015553;28;20048;-63
2021/06/09 08:36:55;;;;;;;7.45;3.92;;;23.70;56.60;;;;;;5015995;28;20480;-62
2021/06/09 08:39:21;;;;;;;6.10;3.37;;;23.70;56.60;;;;;;5015704;28;20070;-63
2021/06/09 08:41:49;;;;;;;5.47;3.42;;;23.70;56.70;;;;;;5015028;28;20280;-61
2021/06/09 08:44:15;;;;;;;7.82;3.33;;;23.70;56.70;;;;;;5015598;28;20052;-61
2021/06/09 08:46:42;;;;;;;5.13;3.33;;;23.90;56.80;;;;;;5015331;28;20022;-61
2021/06/09 08:49:08;;;;;;;6.25;3.30;;;24.20;56.90;;;;;;5014131;28;20029;-62
2021/06/09 08:51:36;;;;;;;6.88;2.75;;;23.80;56.70;;;;;;5015179;28;20096;-62
2021/06/09 08:54:08;;;;;;;6.53;2.97;;;23.80;80.70;;;;;;5015099;28;20018;-62
2021/06/09 08:56:36;;;;;;;6.88;3.00;;;23.80;56.50;;;;;;5015096;28;20052;-62
2021/06/09 08:59:02;;;;;;;3.00;2.13;;;24.00;56.50;;;;;;5015364;28;20026;-62
2021/06/09 09:01:31;;;;;;;4.65;2.60;;;23.80;56.30;;;;;;5015042;28;20109;-62
2021/06/09 09:03:58;;;;;;;6.85;2.75;;;23.80;56.20;;;;;;5013730;28;20046;-61
2021/06/09 09:06:24;;;;;;;2.85;2.30;;;24.30;56.30;;;;;;5015072;28;20025;-61
2021/06/09 09:08:52;;;;;;;4.15;2.50;;;23.90;56.00;;;;;;5013576;28;20026;-62
2021/06/09 09:11:17;;;;;;;4.28;1.95;;;23.80;55.90;;;;;;5013619;28;20512;-62
2021/06/09 09:13:43;;;;;;;3.75;2.35;;;24.00;55.90;;;;;;5014767;28;20041;-62
2021/06/09 09:16:08;;;;;;;2.72;2.28;;;24.20;55.80;;;;;;5014901;28;20069;-62
2021/06/09 09:18:52;;;;;;;3.78;2.33;;;24.10;55.70;;;;;;5014913;28;20483;-62
2021/06/09 09:21:33;;;;;;;5.22;1.95;;;24.10;55.50;;;;;;5014690;28;20022;-61
2021/06/09 09:23:59;;;;;;;5.47;2.42;;;24.10;55.50;;;;;;5014901;28;20025;-61
2021/06/09 09:26:31;;;;;;;2.80;2.00;;;24.60;55.70;;;;;;5014781;28;20033;-61
2021/06/09 09:29:17;;;;;;;2.53;1.85;;;24.20;55.40;;;;;;5014627;28;20109;-61
2021/06/09 09:31:53;;;;;;;2.20;1.90;;;24.20;55.30;;;;;;5014613;28;20044;-61
2021/06/09 09:34:37;;;;;;;5.72;2.00;;;24.20;55.10;;;;;;5014455;28;20176;-61
2021/06/09 09:37:11;;;;;;;3.33;1.92;;;24.40;55.20;;;;;;5014597;28;20030;-62
2021/06/09 09:39:39;;;;;;;2.38;1.80;;;24.30;55.10;;;;;;5014538;28;20377;-62
2021/06/09 09:42:21;;;;;;;3.15;1.75;;;24.90;55.10;;;;;;5029759;28;20456;-62
2021/06/09 09:44:48;;;;;;;3.88;1.88;;;24.40;54.70;;;;;;5014486;28;20056;-61
2021/06/09 09:47:19;;;;;;;4.22;1.90;;;24.40;54.80;;;;;;5014132;28;20380;-62
2021/06/09 09:49:45;;;;;;;3.53;1.80;;;24.40;54.50;;;;;;5014017;28;20029;-62
2021/06/09 09:52:11;;;;;;;4.65;1.70;;;24.80;54.70;;;;;;5014200;28;20056;-62
2021/06/09 09:54:39;;;;;;;3.03;1.73;;;24.40;54.30;;;;;;5013147;28;20026;-62
2021/06/09 09:57:07;;;;;;;3.00;1.80;;;24.50;54.30;;;;;;5013747;28;20109;-62
2021/06/09 09:59:34;;;;;;;2.83;1.52;;;24.50;54.20;;;;;;5012473;28;20044;-62
2021/06/09 10:02:02;;;;;;;2.47;1.23;;;24.50;54.10;;;;;;5014096;28;20061;-62
2021/06/09 10:04:34;;;;;;;2.10;1.48;;;24.50;54.00;;;;;;5013529;28;20042;-62
2021/06/09 10:07:01;;;;;;;2.00;1.48;;;24.50;53.90;;;;;;5014063;28;20037;-63
2021/06/09 10:09:29;;;;;;;1.50;1.35;;;24.50;53.90;;;;;;5013601;28;20026;-63
2021/06/09 10:11:57;;;;;;;2.15;1.67;;;25.40;54.00;;;;;;5014038;28;20022;-63
2021/06/09 10:14:47;;;;;;;1.85;1.35;;;24.60;53.80;;;;;;5013597;28;20025;-62
2021/06/09 10:17:22;;;;;;;2.55;1.45;;;24.60;53.60;;;;;;5013575;28;20385;-63
2021/06/09 10:19:58;;;;;;;2.05;1.63;;;24.60;53.60;;;;;;5013957;28;20476;-62
2021/06/09 10:22:31;;;;;;;4.25;1.48;;;24.60;53.50;;;;;;5013530;28;20053;-62
2021/06/09 10:24:59;;;;;;;1.58;1.45;;;24.70;54.20;;;;;;5013473;28;20026;-62
2021/06/09 10:27:51;;;;;;;2.45;1.52;;;24.90;55.00;;;;;;5013531;28;20033;-62
2021/06/09 10:30:20;;;;;;;4.25;1.48;;;24.70;55.10;;;;;;5013689;28;20061;-62
2021/06/09 10:33:00;;;;;;;2.72;1.73;;;24.70;55.00;;;;;;5013710;28;20026;-62
2021/06/09 10:35:31;;;;;;;2.42;1.20;;;24.70;55.10;;;;;;5013629;28;20546;-62
2021/06/09 10:37:58;;;;;;;1.90;1.48;;;24.70;55.80;;;;;;5012066;28;20022;-62
2021/06/09 10:40:27;;;;;;;12.43;1.80;;;24.70;55.40;;;;;;5013243;28;20472;-62
2021/06/09 10:42:57;;;;;;;2.28;1.30;;;24.70;55.40;;;;;;5013467;28;20026;-62
2021/06/09 10:45:24;;;;;;;1.58;1.05;;;24.70;55.60;;;;;;5013277;28;20022;-62
2021/06/09 10:47:55;;;;;;;2.00;1.20;;;24.70;55.70;;;;;;5028462;28;20080;-62
2021/06/09 10:50:21;;;;;;;2.50;1.52;;;24.80;55.70;;;;;;5013128;28;20022;-62
2021/06/09 10:52:47;;;;;;;2.13;1.40;;;24.80;55.80;;;;;;5013023;28;20423;-62
2021/06/09 10:55:13;;;;;;;2.08;1.55;;;24.90;55.90;;;;;;5012838;28;20032;-62
2021/06/09 10:57:39;;;;;;;2.90;1.40;;;24.80;55.90;;;;;;5012875;28;20057;-62
2021/06/09 11:00:10;;;;;;;1.92;1.42;;;24.80;55.80;;;;;;5012601;28;20072;-62
2021/06/09 11:02:35;;;;;;;3.75;1.33;;;24.80;55.90;;;;;;5011433;28;20109;-62
2021/06/09 11:05:07;;;;;;;4.97;1.80;;;25.20;56.30;;;;;;5012642;28;20177;-62
2021/06/09 11:07:39;;;;;;;1.50;1.40;;;24.80;56.10;;;;;;5011719;28;20029;-62
2021/06/09 11:10:10;;;;;;;3.33;1.50;;;24.80;56.00;;;;;;5012905;28;20040;-61
2021/06/09 11:12:41;;;;;;;1.40;1.23;;;24.90;56.10;;;;;;5012838;28;20532;-61
2021/06/09 11:15:14;;;;;;;2.65;1.45;;;24.90;56.00;;;;;;5013137;28;20072;-62
2021/06/09 11:17:46;;;;;;;1.77;1.30;;;24.90;56.00;;;;;;5013138;28;20430;-62
2021/06/09 11:20:22;;;;;;;2.38;1.30;;;24.90;56.00;;;;;;5013033;28;20358;-63
2021/06/09 11:22:53;;;;;;;1.52;1.30;;;24.90;55.90;;;;;;5013075;28;20370;-63
2021/06/09 11:25:25;;;;;;;4.10;1.42;;;24.90;55.90;;;;;;5011874;28;20026;-63
2021/06/09 11:28:05;;;;;;;1.63;1.30;;;25.00;55.80;;;;;;5011529;28;20392;-63
2021/06/09 11:30:31;;;;;;;3.45;1.70;;;25.00;55.70;;;;;;5012990;28;20105;-63
2021/06/09 11:33:02;;;;;;;1.98;1.23;;;25.00;55.60;;;;;;5012634;28;20105;-61
2021/06/09 11:35:47;;;;;;;1.40;1.30;;;25.00;55.70;;;;;;4995466;28;20040;-62
2021/06/09 11:38:13;;;;;;;1.63;1.45;;;25.00;55.60;;;;;;5011333;28;20030;-62
2021/06/09 11:40:58;;;;;;;4.82;1.50;;;25.10;55.50;;;;;;5012694;28;20088;-63
2021/06/09 11:43:29;;;;;;;2.55;1.50;;;25.00;55.50;;;;;;5012915;28;20030;-62
2021/06/09 11:45:59;;;;;;;5.80;1.40;;;25.00;55.50;;;;;;5012906;28;20035;-62
2021/06/09 11:48:26;;;;;;;2.40;1.48;;;25.00;55.30;;;;;;5012930;28;20026;-62
2021/06/09 11:50:55;;;;;;;2.03;1.27;;;25.30;55.30;;;;;;5011255;28;20037;-61
2021/06/09 11:53:43;;;;;;;1.83;1.37;;;25.40;55.30;;;;;;5012886;28;20045;-61
2021/06/09 11:56:38;;;;;;;1.50;1.40;;;25.10;56.00;;;;;;5012734;28;20382;-61
2021/06/09 11:59:20;;;;;;;1.77;1.30;;;25.10;56.80;;;;;;5012416;28;20021;-61
2021/06/09 12:01:47;;;;;;;1.73;1.48;;;25.10;58.00;;;;;;5011229;28;20424;-61
2021/06/09 12:04:20;;;;;;;1.92;1.30;;;25.10;58.20;;;;;;5012300;28;20045;-61
2021/06/09 12:07:06;;;;;;;1.77;1.10;;;25.10;58.30;;;;;;5012650;28;20040;-61
2021/06/09 12:09:41;;;;;;;1.58;1.48;;;25.10;58.40;;;;;;5012289;28;20069;-60
2021/06/09 12:12:29;;;;;;;2.38;1.60;;;25.10;59.20;;;;;;5012477;28;20033;-62
2021/06/09 12:14:58;;;;;;;1.70;1.60;;;25.20;58.70;;;;;;5012658;28;20018;-61
2021/06/09 12:17:30;;;;;;;1.90;1.80;;;25.10;58.70;;;;;;4996282;28;20536;-62
2021/06/09 12:20:04;;;;;;;1.85;1.63;;;25.10;58.40;;;;;;5015916;28;20338;-62
2021/06/09 12:22:32;;;;;;;2.03;1.70;;;25.10;58.30;;;;;;5014760;28;20088;-61
2021/06/09 12:25:07;;;;;;;1.60;1.50;;;25.10;58.20;;;;;;5015866;28;20026;-61
2021/06/09 12:27:35;;;;;;;2.65;1.55;;;25.10;57.90;;;;;;5015806;28;20026;-62
2021/06/09 12:30:06;;;;;;;2.30;1.75;;;25.00;57.50;;;;;;5015739;28;20022;-62
2021/06/09 12:32:34;;;;;;;1.65;1.55;;;25.10;56.80;;;;;;5015691;28;20034;-61
2021/06/09 12:35:12;;;;;;;1.80;1.40;;;25.10;56.10;;;;;;5015963;28;20083;-61
2021/06/09 12:37:47;;;;;;;2.38;1.30;;;25.10;56.10;;;;;;5015968;28;20088;-62
2021/06/09 12:40:14;;;;;;;3.63;1.30;;;25.00;55.70;;;;;;5015592;28;20108;-62
2021/06/09 12:42:49;;;;;;;1.55;1.40;;;25.00;55.60;;;;;;5015618;28;20149;-61
2021/06/09 12:45:16;;;;;;;1.80;1.35;;;25.00;55.20;;;;;;5015515;28;20034;-61
2021/06/09 12:47:43;;;;;;;2.92;1.55;;;24.90;55.30;;;;;;5015469;28;20073;-62
2021/06/09 12:50:25;;;;;;;2.47;1.10;;;25.20;55.50;;;;;;5015339;28;20030;-61
2021/06/09 12:52:50;;;;;;;2.08;0.77;;;25.00;55.10;;;;;;5015555;28;20491;-61
2021/06/09 12:55:25;;;;;;;1.92;1.27;;;24.90;54.90;;;;;;5015338;28;20149;-61
2021/06/09 12:57:53;;;;;;;1.95;1.30;;;25.00;55.30;;;;;;5015038;28;20025;-62
2021/06/09 13:00:21;;;;;;;1.77;1.40;;;25.00;55.30;;;;;;5015035;28;20026;-61
2021/06/09 13:02:47;;;;;;;0.93;0.93;;;25.00;55.10;;;;;;5015482;28;20073;-62